Other Surface Observations
Issued by NWS Missoula, MT

Home | Current Version | Previous Version | Text Only | Print | Product List | Glossary On
Versions: 1 2 3 4 5 6 7 8 9 10 11 12 13 14 15 16 17 18 19 20 21 22 23 24 25 26 27 28 29 30 31 32 33 34 35 36 37 38 39 40 41 42 43 44 45 46 47 48 49 50
097
SXUS55 KMSO 181303
OSOMSO
MONTANA AWOS SUMMARY
NATIONAL WEATHER SERVICE MISSOULA MT
603 AM MST WED JAN 18 2017

Montana AWOS Reports

LAUREL      |K6S8 181255Z AUTO 22018KT 40SM 02/M07 A2974 RMK AO1 T00171071
TWIN BRIDGES|K7S1 181255Z AUTO 11009KT 40SM M07/M14 A2988 RMK AO1 T10711143
PLAINS      |KS34 181255Z AUTO 00000KT 10SM M07/M11 A2979 RMK AO1 T10661110
SCOBEY      |K9S2 181255Z AUTO 00000KT 40SM M01/M06 A2960 RMK AO1 T10051055




USA.gov is the U.S. government's official web portal to all federal, state and local government web resources and services.